This is the latest recevied weather packets stored in our database for station/object OM1PU-6. If no packets are shown the sender has not sent any weather packets the latest 10 day(s).
| Time | Temp. | Humidity | Pressure | Rain* | Wind** | Luminosity | Snow |
|---|---|---|---|---|---|---|---|
| 1777872797 | 11.67° C | 73% | 1028.6 hPa | 0 mm | - | - | - |
| 1777871896 | 10.56° C | 75% | 1029 hPa | 0 mm | - | - | - |
| 1777870996 | 10° C | 78% | 1028.8 hPa | 0 mm | - | - | - |
| 1777870096 | 9.44° C | 80% | 1028.5 hPa | 0 mm | - | - | - |
| 1777869197 | 9.44° C | 78% | 1028.3 hPa | 0 mm | - | - | - |
| 1777868296 | 8.33° C | 78% | 1028.4 hPa | 0 mm | - | - | - |
| 1777867396 | 7.78° C | 81% | 1028.5 hPa | 0 mm | - | - | - |
| 1777866497 | 7.78° C | 82% | 1028.3 hPa | 0 mm | - | - | - |
| 1777865596 | 7.22° C | 82% | 1028.5 hPa | 0 mm | - | - | - |
| 1777864696 | 7.22° C | 81% | 1028.8 hPa | 0 mm | - | - | - |
| 1777863797 | 7.22° C | 80% | 1028.5 hPa | 0 mm | - | - | - |
| 1777862896 | 7.22° C | 81% | 1028.8 hPa | 0 mm | - | - | - |
| 1777861996 | 7.78° C | 79% | 1028.7 hPa | 0 mm | - | - | - |
| 1777861097 | 7.78° C | 78% | 1028.8 hPa | 0 mm | - | - | - |
| 1777860196 | 7.78° C | 79% | 1028.8 hPa | 0 mm | - | - | - |
| 1777859296 | 7.78° C | 78% | 1028.5 hPa | 0 mm | - | - | - |
| 1777858397 | 8.33° C | 77% | 1028.5 hPa | 0 mm | - | - | - |
| 1777857497 | 8.89° C | 76% | 1028.2 hPa | 0 mm | - | - | - |
| 1777856596 | 8.89° C | 76% | 1028.3 hPa | 0 mm | - | - | - |
| 1777855696 | 9.44° C | 72% | 1028.3 hPa | 0 mm | - | - | - |
| 1777854797 | 10° C | 69% | 1028.3 hPa | 0 mm | - | - | - |
| 1777853896 | 10.56° C | 68% | 1028.3 hPa | 0 mm | - | - | - |
| 1777852996 | 10.56° C | 68% | 1028.3 hPa | 0 mm | - | - | - |
| 1777852097 | 11.11° C | 65% | 1028.2 hPa | 0 mm | - | - | - |
| 1777851196 | 11.67° C | 63% | 1028.4 hPa | 0 mm | - | - | - |
* Rain latest 24 hours (hover to see other rain measurements)
** Current wind speed in m/s (hover to see current wind gust speed)